Time;durP1;ratioP1;P1;durP2;ratioP2;P2;SDS_P1;SDS_P2;PMS_P1;PMS_P2;Temp;Humidity;BMP_temperature;BMP_pressure;BME280_temperature;BME280_humidity;BME280_pressure;Samples;Min_cycle;Max_cycle;Signal;HPM_P1;HPM_P2
2022/12/12 00:02:00;;;;;;;5.08;4.33;;;;;;;1.61;100.00;97936.95;1778292;80;21126;-73
2022/12/12 00:04:26;;;;;;;5.00;4.20;;;;;;;1.62;99.99;97946.42;1773984;79;21183;-74
2022/12/12 00:06:53;;;;;;;6.25;4.65;;;;;;;1.62;99.99;97946.42;1769366;79;21081;-72
2022/12/12 00:09:21;;;;;;;4.45;4.03;;;;;;;1.54;100.00;97933.30;1760194;80;21025;-74
2022/12/12 00:11:47;;;;;;;4.03;3.70;;;;;;;1.64;100.00;97941.03;1741327;81;21050;-73
2022/12/12 00:14:13;;;;;;;4.75;4.17;;;;;;;1.65;100.00;97942.69;1797246;78;21947;-72
2022/12/12 00:16:41;;;;;;;5.37;4.87;;;;;;;1.64;100.00;97945.80;1765325;79;21094;-74
2022/12/12 00:19:07;;;;;;;5.75;3.65;;;;;;;1.64;100.00;97945.80;1789915;78;21066;-74
2022/12/12 00:21:34;;;;;;;4.45;3.95;;;;;;;1.73;100.00;97942.23;1784434;79;21064;-72
2022/12/12 00:24:01;;;;;;;4.20;3.80;;;;;;;1.73;100.00;97942.23;1778562;79;21014;-71
2022/12/12 00:26:30;;;;;;;3.58;3.27;;;;;;;1.69;100.00;97937.48;1778089;79;21074;-73
2022/12/12 00:28:57;;;;;;;4.05;3.67;;;;;;;1.76;100.00;97939.31;1775556;79;21073;-72
2022/12/12 00:31:23;;;;;;;4.30;3.90;;;;;;;1.62;99.17;97954.27;1748205;79;21136;-72
2022/12/12 00:33:50;;;;;;;4.08;3.65;;;;;;;1.62;99.17;97954.27;1776372;79;21002;-73
2022/12/12 00:36:18;;;;;;;4.22;3.77;;;;;;;1.63;99.58;97955.12;1742626;80;21047;-73
2022/12/12 00:38:45;;;;;;;5.00;4.30;;;;;;;1.70;99.38;97956.96;1763051;79;21246;-72
2022/12/12 00:41:11;;;;;;;4.03;3.62;;;;;;;1.68;99.56;97962.00;1772793;80;21560;-71
2022/12/12 00:43:38;;;;;;;4.80;4.33;;;;;;;1.61;99.53;97988.48;1776413;80;21087;-74
2022/12/12 00:46:05;;;;;;;4.60;4.10;;;;;;;1.62;98.51;97991.41;1770186;79;21068;-71
2022/12/12 00:48:33;;;;;;;4.03;3.67;;;;;;;1.48;99.04;97993.62;1749160;80;21129;-73
2022/12/12 00:51:09;;;;;;;3.45;3.15;;;;;;;1.48;99.04;97993.62;1775775;80;21093;-71
2022/12/12 00:53:37;;;;;;;4.28;3.87;;;;;;;1.48;98.69;97986.26;1779957;79;21050;-69
2022/12/12 00:56:05;;;;;;;4.05;3.45;;;;;;;1.48;98.69;97986.26;1787981;79;21287;-70
2022/12/12 00:58:32;;;;;;;4.17;3.75;;;;;;;1.42;98.99;97981.15;1828592;76;21112;-71
2022/12/12 01:01:05;;;;;;;3.25;2.95;;;;;;;1.48;98.16;97979.72;1821565;78;21010;-73
2022/12/12 01:03:35;;;;;;;3.67;3.37;;;;;;;1.48;98.16;97979.72;1820241;76;22164;-72
2022/12/12 01:06:02;;;;;;;4.67;3.47;;;;;;;1.38;97.34;97970.16;1810776;78;21018;-72
2022/12/12 01:08:29;;;;;;;4.65;3.85;;;;;;;1.23;97.69;97969.07;1826310;76;21561;-71
2022/12/12 01:10:56;;;;;;;3.83;3.42;;;;;;;1.20;97.94;97969.86;1828048;76;21085;-72
2022/12/12 01:13:22;;;;;;;4.42;3.95;;;;;;;1.19;97.33;97965.13;1828963;76;21093;-72
2022/12/12 01:15:49;;;;;;;4.37;3.92;;;;;;;1.12;97.72;97970.61;1827511;76;21124;-72
2022/12/12 01:18:16;;;;;;;4.03;3.62;;;;;;;1.13;98.17;97967.86;1827800;78;21002;-72
2022/12/12 01:20:43;;;;;;;4.53;4.08;;;;;;;1.18;97.51;97963.49;1807510;76;20971;-74
2022/12/12 01:23:09;;;;;;;4.42;4.03;;;;;;;0.98;98.16;97964.98;1819727;76;21105;-72
2022/12/12 01:25:36;;;;;;;4.45;3.58;;;;;;;0.98;98.16;97964.98;1829007;78;21034;-73
2022/12/12 01:28:02;;;;;;;3.95;3.55;;;;;;;1.03;98.33;97976.77;1828581;76;21221;-75
2022/12/12 01:30:29;;;;;;;4.95;4.25;;;;;;;1.09;98.45;97975.67;1800879;78;21034;-72
2022/12/12 01:32:56;;;;;;;5.08;4.08;;;;;;;1.03;98.81;97968.93;1801828;78;21037;-73
2022/12/12 01:35:23;;;;;;;5.67;5.17;;;;;;;1.05;98.79;97966.48;1829408;78;21531;-72
2022/12/12 01:37:49;;;;;;;5.78;4.17;;;;;;;1.06;98.78;97986.91;1824801;76;21073;-73
2022/12/12 01:40:21;;;;;;;4.10;3.67;;;;;;;0.99;99.24;97990.63;1816885;76;21097;-72
2022/12/12 01:42:48;;;;;;;5.12;4.15;;;;;;;1.02;98.90;97984.27;1827709;76;21030;-73
2022/12/12 01:45:59;;;;;;;5.22;4.00;;;;;;;1.01;98.72;98002.26;1828101;78;21325;-72
2022/12/12 01:48:34;;;;;;;5.85;4.45;;;;;;;0.91;99.17;97999.72;1827919;76;21605;-71
2022/12/12 01:51:05;;;;;;;5.45;4.50;;;;;;;0.91;98.85;98006.25;1829937;76;20959;-73
2022/12/12 01:53:33;;;;;;;5.15;4.55;;;;;;;0.93;98.61;97993.85;1828720;78;21025;-72
2022/12/12 01:55:59;;;;;;;5.37;4.50;;;;;;;0.84;99.25;97990.33;1829125;76;21010;-73
2022/12/12 01:58:26;;;;;;;4.12;3.67;;;;;;;0.80;99.99;97985.06;1828215;76;21026;-73
2022/12/12 02:00:53;;;;;;;4.92;4.42;;;;;;;0.89;100.00;97984.17;1813248;76;21037;-73
2022/12/12 02:03:19;;;;;;;5.80;4.87;;;;;;;0.91;100.00;97987.95;1827271;76;21141;-73
2022/12/12 02:05:52;;;;;;;5.80;4.60;;;;;;;0.85;100.00;97993.75;1793829;76;21587;-74
2022/12/12 02:08:20;;;;;;;6.28;5.08;;;;;;;0.86;100.00;97993.61;1810854;78;21054;-72
2022/12/12 02:10:47;;;;;;;6.08;4.95;;;;;;;0.86;100.00;97989.69;1823592;76;21041;-73
2022/12/12 02:13:17;;;;;;;5.20;4.70;;;;;;;0.79;100.00;97991.25;1807794;76;21039;-73
2022/12/12 02:16:27;;;;;;;5.03;4.53;;;;;;;0.81;100.00;97993.72;1841140;76;21608;-71
2022/12/12 02:19:17;;;;;;;5.78;5.17;;;;;;;0.82;100.00;97994.06;1844070;76;21176;-74
2022/12/12 02:22:09;;;;;;;5.20;4.60;;;;;;;0.77;100.00;97988.80;1792436;78;21752;-71
2022/12/12 02:25:08;;;;;;;5.20;4.42;;;;;;;0.78;100.00;97987.00;1825710;76;21018;-73
2022/12/12 02:28:00;;;;;;;5.58;4.97;;;;;;;0.75;100.00;97980.75;1800300;78;21089;-74
2022/12/12 02:30:41;;;;;;;6.22;4.62;;;;;;;0.63;100.00;97966.27;1775966;78;21113;-71
2022/12/12 02:33:41;;;;;;;6.50;5.40;;;;;;;0.70;100.00;97965.53;1829001;78;21218;-72
2022/12/12 02:36:33;;;;;;;5.90;4.85;;;;;;;0.80;100.00;97982.45;1819948;76;21088;-73
2022/12/12 02:39:14;;;;;;;5.70;4.85;;;;;;;0.80;100.00;97970.69;1827749;76;21504;-74
2022/12/12 02:41:47;;;;;;;5.25;4.55;;;;;;;0.71;100.00;97910.15;1794053;76;21715;-72
2022/12/12 02:44:56;;;;;;;10.10;4.90;;;;;;;0.85;100.00;97899.17;1835690;76;21132;-72
2022/12/12 02:47:25;;;;;;;5.75;4.97;;;;;;;0.95;100.00;97909.05;1807740;77;21280;-75
2022/12/12 02:50:17;;;;;;;6.13;4.57;;;;;;;0.98;100.00;97926.22;1838620;78;21013;-72
2022/12/12 02:52:45;;;;;;;6.00;5.00;;;;;;;1.11;100.00;97958.52;1831017;76;21030;-74
2022/12/12 02:55:12;;;;;;;6.10;4.92;;;;;;;1.06;100.00;98007.34;1821593;76;21018;-73
2022/12/12 02:57:40;;;;;;;6.40;5.30;;;;;;;0.89;100.00;97990.71;1828346;76;21066;-73
2022/12/12 03:00:13;;;;;;;7.05;5.75;;;;;;;0.86;100.00;97982.34;1829104;76;21868;-74
2022/12/12 03:09:31;;;;;;;8.78;6.90;;;;;;;0.66;100.00;97982.98;1696164;82;21080;-72
2022/12/12 03:12:13;;;;;;;7.20;6.17;;;;;;;0.62;100.00;97983.75;1768054;76;21025;-72
2022/12/12 03:14:50;;;;;;;7.08;6.10;;;;;;;0.54;100.00;97973.20;1827946;76;21123;-73
2022/12/12 03:17:31;;;;;;;6.55;5.90;;;;;;;0.63;100.00;97978.03;1830011;78;21564;-72
2022/12/12 03:20:09;;;;;;;8.03;6.40;;;;;;;0.61;100.00;97996.96;1825322;76;21022;-72
2022/12/12 03:22:51;;;;;;;7.75;6.65;;;;;;;0.49;100.00;98008.92;1795066;78;21050;-74
2022/12/12 03:25:29;;;;;;;7.55;6.62;;;;;;;0.46;100.00;98002.67;1829439;76;21049;-74
2022/12/12 03:28:04;;;;;;;6.80;6.00;;;;;;;0.46;100.00;98013.13;1828268;76;21077;-74
2022/12/12 03:30:35;;;;;;;7.03;5.95;;;;;;;0.36;100.00;98007.95;1827778;76;21033;-75
2022/12/12 03:33:25;;;;;;;7.58;6.75;;;;;;;0.39;100.00;98007.67;1828664;77;21029;-75
2022/12/12 03:36:03;;;;;;;9.05;7.05;;;;;;;0.37;100.00;98012.22;1829632;78;21020;-76
2022/12/12 03:38:36;;;;;;;8.40;6.58;;;;;;;0.26;100.00;98010.30;1829155;76;21037;-73
2022/12/12 03:41:05;;;;;;;8.25;6.92;;;;;;;0.28;100.00;98003.95;1818579;76;21068;-74
2022/12/12 03:43:41;;;;;;;7.90;6.65;;;;;;;0.28;100.00;98009.66;1821557;76;21619;-72
2022/12/12 03:46:22;;;;;;;8.53;6.55;;;;;;;0.19;100.00;98006.96;1829468;78;20998;-72
2022/12/12 03:48:56;;;;;;;8.25;7.00;;;;;;;0.23;100.00;98003.55;1830301;78;21070;-74
2022/12/12 03:51:27;;;;;;;7.65;6.85;;;;;;;0.31;100.00;98028.48;1824628;78;21594;-75
2022/12/12 03:54:02;;;;;;;7.47;6.55;;;;;;;0.29;100.00;98029.58;1808009;77;21121;-77
2022/12/12 03:56:38;;;;;;;8.20;6.62;;;;;;;0.24;100.00;98034.43;1811709;77;21038;-72
2022/12/12 03:59:11;;;;;;;8.45;6.70;;;;;;;0.31;100.00;98042.00;1815231;77;21526;-74
2022/12/12 04:01:52;;;;;;;8.95;7.28;;;;;;;0.30;100.00;98035.16;1815610;79;21010;-75
2022/12/12 04:04:44;;;;;;;7.28;6.58;;;;;;;0.22;100.00;98036.36;1802569;77;21562;-73
2022/12/12 04:07:26;;;;;;;7.55;6.58;;;;;;;0.26;100.00;98046.37;1790510;77;21167;-73
2022/12/12 04:12:58;;;;;;;8.20;6.80;;;;;;;0.25;100.00;98041.28;1798439;77;21487;-73
2022/12/12 04:15:56;;;;;;;9.40;7.25;;;;;;;0.27;100.00;98040.66;1824854;77;21050;-71
2022/12/12 04:18:46;;;;;;;7.72;6.65;;;;;;;0.27;100.00;98049.80;1781818;79;21069;-73
2022/12/12 04:24:29;;;;;;;10.23;7.87;;;;;;;0.30;100.00;98024.70;1814833;77;21011;-74
2022/12/12 04:27:19;;;;;;;8.53;6.75;;;;;;;0.12;100.00;98041.14;1810576;77;21022;-74
2022/12/12 04:29:51;;;;;;;8.18;6.80;;;;;;;0.06;100.00;98045.63;1815080;79;21065;-73
2022/12/12 04:32:28;;;;;;;9.53;7.60;;;;;;;0.04;100.00;98024.06;1798726;79;21126;-71
2022/12/12 04:35:06;;;;;;;7.12;6.08;;;;;;;-0.04;100.00;98026.55;1806373;79;21182;-72
2022/12/12 04:37:50;;;;;;;9.20;7.20;;;;;;;-0.01;100.00;98036.23;1813372;79;21053;-74
2022/12/12 04:40:33;;;;;;;8.93;7.08;;;;;;;-0.01;100.00;98048.47;1812907;77;21085;-74
2022/12/12 04:43:08;;;;;;;10.15;7.47;;;;;;;-0.10;100.00;98061.88;1813918;76;28421;-75
2022/12/12 04:45:39;;;;;;;9.10;7.40;;;;;;;-0.01;100.00;98059.72;1813159;78;21063;-73
2022/12/12 04:48:07;;;;;;;10.48;7.80;;;;;;;0.03;100.00;98060.27;1844412;76;21165;-75
2022/12/12 04:50:34;;;;;;;8.50;6.80;;;;;;;-0.01;100.00;98056.30;1854536;77;21456;-73
2022/12/12 04:53:03;;;;;;;8.05;7.25;;;;;;;0.01;100.00;98044.41;1831538;77;20987;-77
2022/12/12 04:55:33;;;;;;;9.85;7.78;;;;;;;0.01;100.00;98036.09;1809364;78;21017;-76
2022/12/12 04:58:00;;;;;;;9.15;7.25;;;;;;;-0.09;100.00;98032.70;1825067;77;21057;-75
2022/12/12 05:00:31;;;;;;;9.15;7.92;;;;;;;-0.06;100.00;98033.70;1825191;77;21203;-74
2022/12/12 05:03:09;;;;;;;10.32;8.18;;;;;;;-0.02;100.00;98028.07;1802130;77;21097;-73
2022/12/12 05:05:43;;;;;;;9.68;7.83;;;;;;;0.00;100.00;98030.55;1820600;77;21046;-74
2022/12/12 05:08:18;;;;;;;9.48;7.45;;;;;;;-0.05;100.00;98048.41;1825369;78;21131;-74
2022/12/12 05:10:46;;;;;;;9.65;7.83;;;;;;;0.01;100.00;98056.16;1825943;78;21065;-74
2022/12/12 05:13:17;;;;;;;10.28;7.95;;;;;;;0.02;100.00;98061.25;1828675;77;21226;-71
2022/12/12 05:15:45;;;;;;;10.32;7.90;;;;;;;-0.06;100.00;98071.55;1825906;77;21023;-74
2022/12/12 05:18:12;;;;;;;8.85;7.37;;;;;;;-0.04;100.00;98071.77;1826684;78;21486;-73
2022/12/12 05:20:38;;;;;;;11.00;8.40;;;;;;;-0.04;100.00;98070.47;1826661;78;20998;-72
2022/12/12 05:23:05;;;;;;;9.65;7.58;;;;;;;-0.07;100.00;98082.98;1826342;77;21129;-72
2022/12/12 05:25:32;;;;;;;12.10;8.88;;;;;;;-0.16;100.00;98091.64;1824963;78;21211;-71
2022/12/12 05:27:58;;;;;;;11.43;8.13;;;;;;;-0.16;100.00;98100.29;1825135;77;21009;-71
2022/12/12 05:30:24;;;;;;;8.65;7.65;;;;;;;-0.18;100.00;98090.97;1825221;77;21116;-73
2022/12/12 05:32:51;;;;;;;11.73;9.25;;;;;;;-0.32;100.00;98077.88;1817239;77;21049;-73
2022/12/12 05:35:18;;;;;;;12.18;9.05;;;;;;;-0.38;100.00;98092.30;1823695;78;21085;-73
2022/12/12 05:37:44;;;;;;;10.72;8.23;;;;;;;-0.38;100.00;98093.61;1825236;77;20999;-72
2022/12/12 05:40:12;;;;;;;12.65;9.98;;;;;;;-0.32;100.00;98093.05;1826875;77;21104;-75
2022/12/12 05:42:39;;;;;;;13.30;9.58;;;;;;;-0.35;100.00;98095.11;1828020;77;22442;-73
2022/12/12 05:45:07;;;;;;;13.10;9.50;;;;;;;-0.42;100.00;98106.59;1826102;78;21010;-72
2022/12/12 05:47:33;;;;;;;11.70;9.00;;;;;;;-0.36;100.00;98110.44;1826125;78;21128;-72
2022/12/12 05:50:01;;;;;;;13.93;9.93;;;;;;;-0.30;100.00;98118.52;1823474;77;21549;-72
2022/12/12 05:52:27;;;;;;;13.38;9.73;;;;;;;-0.32;100.00;98128.77;1800287;77;21050;-73
2022/12/12 05:54:54;;;;;;;17.30;13.20;;;;;;;-0.43;100.00;98135.75;1825033;77;21064;-74
2022/12/12 05:57:20;;;;;;;25.80;16.75;;;;;;;-0.40;100.00;98137.28;1824283;78;21030;-73
2022/12/12 05:59:47;;;;;;;24.50;16.10;;;;;;;-0.34;100.00;98145.04;1820316;77;21260;-72
2022/12/12 06:02:14;;;;;;;20.62;12.65;;;;;;;-0.40;100.00;98135.97;1821846;77;21831;-75
2022/12/12 06:04:41;;;;;;;40.92;22.30;;;;;;;-0.45;100.00;98138.16;1821847;77;21034;-73
2022/12/12 06:07:08;;;;;;;31.82;19.75;;;;;;;-0.47;100.00;98136.17;1804695;77;21527;-73
2022/12/12 06:09:35;;;;;;;51.55;26.60;;;;;;;-0.51;100.00;98140.84;1823739;77;20999;-74
2022/12/12 06:12:02;;;;;;;45.00;25.43;;;;;;;-0.61;100.00;98138.23;1824279;77;21070;-72
2022/12/12 06:14:29;;;;;;;59.27;33.13;;;;;;;-0.60;100.00;98139.89;1823896;77;21514;-75
2022/12/12 06:16:55;;;;;;;40.83;24.12;;;;;;;-0.53;100.00;98158.91;1822563;77;21093;-75
2022/12/12 06:19:21;;;;;;;23.07;15.00;;;;;;;-0.53;100.00;98158.41;1822422;78;21513;-76
2022/12/12 06:21:48;;;;;;;13.28;8.60;;;;;;;-0.58;100.00;98152.77;1822929;77;21113;-73
2022/12/12 06:24:14;;;;;;;12.20;8.65;;;;;;;-0.53;100.00;98164.94;1821802;77;21160;-74
2022/12/12 06:26:41;;;;;;;10.60;7.65;;;;;;;-0.52;100.00;98163.14;1821472;77;21141;-75
2022/12/12 06:29:07;;;;;;;10.93;8.55;;;;;;;-0.61;100.00;98166.10;1819729;77;21097;-75
2022/12/12 06:31:33;;;;;;;12.30;8.48;;;;;;;-0.59;100.00;98172.00;1822717;77;21010;-77
2022/12/12 06:34:00;;;;;;;9.03;7.92;;;;;;;-0.53;100.00;98169.34;1824056;78;21018;-75
2022/12/12 06:36:26;;;;;;;11.12;8.60;;;;;;;-0.56;100.00;98176.12;1821316;78;21029;-74
2022/12/12 06:38:56;;;;;;;11.33;8.65;;;;;;;-0.50;100.00;98176.41;1819702;77;21500;-73
2022/12/12 06:41:26;;;;;;;10.43;8.18;;;;;;;-0.47;100.00;98168.30;1815810;77;21002;-72
2022/12/12 06:43:53;;;;;;;13.70;9.53;;;;;;;-0.49;100.00;98177.23;1795702;79;21548;-75
2022/12/12 06:46:22;;;;;;;11.10;8.78;;;;;;;-0.42;100.00;98174.42;1775718;79;21521;-73
2022/12/12 06:48:48;;;;;;;15.10;9.10;;;;;;;-0.35;100.00;98181.21;1783811;79;21038;-73
2022/12/12 06:51:22;;;;;;;19.00;10.93;;;;;;;-0.36;100.00;98188.72;1786715;80;20994;-76
2022/12/12 06:53:48;;;;;;;17.87;10.98;;;;;;;-0.43;100.00;98185.81;1784860;79;21200;-75
2022/12/12 06:56:21;;;;;;;13.10;8.40;;;;;;;-0.40;100.00;98202.02;1784734;79;21219;-77
2022/12/12 06:58:47;;;;;;;15.35;10.00;;;;;;;-0.43;98.13;98200.16;1785954;78;21032;-76
2022/12/12 07:01:15;;;;;;;12.28;7.87;;;;;;;-0.58;97.84;98205.42;1770583;78;21089;-74
2022/12/12 07:03:41;;;;;;;10.23;8.00;;;;;;;-0.58;97.78;98209.34;1787004;78;21091;-74
2022/12/12 07:06:07;;;;;;;10.15;7.95;;;;;;;-0.56;97.54;98205.66;1783972;78;21077;-78
2022/12/12 07:08:34;;;;;;;10.95;8.43;;;;;;;-0.61;97.19;98198.22;1795985;78;21006;-77
2022/12/12 07:11:10;;;;;;;11.88;8.30;;;;;;;-0.71;96.92;98210.42;1776021;78;21548;-77
2022/12/12 07:13:37;;;;;;;11.70;8.88;;;;;;;-0.67;97.13;98204.47;1777857;78;21045;-77
2022/12/12 07:16:05;;;;;;;11.43;9.30;;;;;;;-0.64;96.93;98205.48;1776707;78;21164;-77
2022/12/12 07:18:31;;;;;;;15.65;10.43;;;;;;;-0.73;96.92;98201.91;1785336;78;20998;-75
2022/12/12 07:20:58;;;;;;;22.82;13.75;;;;;;;-0.80;96.78;98200.30;1787298;80;21037;-78
2022/12/12 07:23:24;;;;;;;15.32;10.08;;;;;;;-0.71;96.92;98196.57;1787640;80;21080;-76
2022/12/12 07:25:51;;;;;;;16.55;11.48;;;;;;;-0.68;97.08;98199.70;1785414;78;21065;-76
2022/12/12 07:28:18;;;;;;;13.45;9.68;;;;;;;-0.71;97.28;98206.52;1777404;78;21665;-76
2022/12/12 07:30:45;;;;;;;13.53;10.20;;;;;;;-0.62;97.15;98205.72;1787007;80;21108;-76
2022/12/12 07:33:13;;;;;;;13.80;10.13;;;;;;;-0.55;96.98;98211.69;1787679;80;21021;-75
2022/12/12 07:35:40;;;;;;;13.15;9.80;;;;;;;-0.62;97.16;98214.00;1772087;80;21050;-76
2022/12/12 07:38:07;;;;;;;13.90;10.53;;;;;;;-0.54;96.85;98222.45;1757908;80;21264;-76
2022/12/12 07:40:34;;;;;;;13.75;10.28;;;;;;;-0.53;95.42;98233.25;1729842;81;21114;-74
2022/12/12 07:43:01;;;;;;;16.97;11.83;;;;;;;-0.60;96.04;98232.95;1769451;80;21049;-75
2022/12/12 07:45:27;;;;;;;19.80;13.60;;;;;;;-0.56;96.21;98250.00;1783536;80;21043;-75
2022/12/12 07:47:54;;;;;;;20.15;13.25;;;;;;;-0.49;95.55;98257.61;1765276;80;21061;-76
2022/12/12 07:50:21;;;;;;;13.93;10.78;;;;;;;-0.52;96.12;98249.23;1765394;81;21065;-76
2022/12/12 07:52:47;;;;;;;16.27;11.68;;;;;;;-0.45;95.86;98262.91;1764482;80;21154;-76
2022/12/12 07:55:13;;;;;;;16.15;11.78;;;;;;;-0.50;94.81;98253.83;1765153;80;21072;-74
2022/12/12 08:09:18;;;;;;;14.87;12.60;;;;;;;0.56;93.03;98267.39;1812307;78;24633;-77
2022/12/12 08:11:45;;;;;;;14.07;11.93;;;;;;;0.50;92.89;98269.27;1786264;80;20938;-75
2022/12/12 08:14:12;;;;;;;13.98;11.70;;;;;;;0.32;92.30;98267.01;1765498;80;21172;-75
2022/12/12 08:16:45;;;;;;;15.43;12.18;;;;;;;;;;1769361;80;21093;-78
2022/12/12 08:19:10;;;;;;;15.23;12.55;;;;;;;0.18;92.74;98275.61;1758316;81;21029;-76
2022/12/12 08:21:36;;;;;;;17.70;12.85;;;;;;;0.18;93.09;98272.18;1718565;81;21076;-75
2022/12/12 08:24:04;;;;;;;16.90;12.85;;;;;;;0.04;93.33;98272.12;1737696;81;21019;-77
2022/12/12 08:26:31;;;;;;;18.85;13.00;;;;;;;-0.05;93.63;98274.23;1725182;81;21162;-76
2022/12/12 08:28:57;;;;;;;17.95;13.05;;;;;;;-0.03;93.68;98273.62;1714539;83;21034;-77
2022/12/12 08:31:26;;;;;;;26.93;16.25;;;;;;;-0.01;93.33;98277.73;1741419;81;21010;-77
2022/12/12 08:33:52;;;;;;;31.52;17.92;;;;;;;-0.16;92.65;98284.31;1760333;81;21034;-80
2022/12/12 08:36:22;;;;;;;26.90;16.17;;;;;;;-0.25;93.15;98290.34;1760671;78;21017;-75
2022/12/12 08:38:49;;;;;;;22.32;15.75;;;;;;;-0.23;93.47;98275.40;1757732;81;21162;-76
2022/12/12 08:41:15;;;;;;;36.83;19.77;;;;;;;-0.25;93.56;98270.30;1739525;81;21059;-78
2022/12/12 08:43:43;;;;;;;30.32;17.40;;;;;;;-0.34;94.10;98279.42;1697243;83;21060;-78
2022/12/12 08:46:12;;;;;;;24.40;15.50;;;;;;;-0.32;93.65;98281.42;1700832;83;21042;-75
2022/12/12 08:48:39;;;;;;;21.05;15.50;;;;;;;-0.29;93.95;98282.44;1739901;80;21049;-77
2022/12/12 08:51:05;;;;;;;20.77;15.08;;;;;;;-0.40;94.01;98289.92;1751587;82;21809;-75
2022/12/12 08:53:32;;;;;;;20.70;14.18;;;;;;;-0.46;93.51;98286.55;1752729;82;21045;-75
2022/12/12 08:55:59;;;;;;;19.90;15.63;;;;;;;-0.42;93.29;98295.75;1752531;82;21086;-75
2022/12/12 08:58:25;;;;;;;23.95;16.25;;;;;;;-0.48;92.81;98304.12;1749862;82;21024;-75
2022/12/12 09:00:52;;;;;;;25.68;17.17;;;;;;;-0.58;93.21;98293.63;1747331;82;21061;-75
2022/12/12 09:03:18;;;;;;;24.65;15.28;;;;;;;-0.57;93.79;98299.69;1752588;82;21253;-74
2022/12/12 09:05:45;;;;;;;25.95;16.67;;;;;;;-0.46;93.33;98302.20;1722454;83;21081;-76
2022/12/12 09:08:12;;;;;;;35.55;20.37;;;;;;;-0.44;94.00;98291.97;1745771;82;21106;-71
2022/12/12 09:10:40;;;;;;;23.02;16.20;;;;;;;-0.46;94.31;98287.36;1785402;80;21508;-72
2022/12/12 09:13:07;;;;;;;26.75;18.00;;;;;;;-0.33;93.88;98284.52;1793370;78;21006;-73
2022/12/12 09:15:35;;;;;;;24.72;18.05;;;;;;;-0.27;93.68;98287.05;1800170;79;21221;-73
2022/12/12 09:18:03;;;;;;;26.75;16.73;;;;;;;-0.33;94.05;98285.83;1758398;80;21061;-73
2022/12/12 09:20:30;;;;;;;23.57;16.00;;;;;;;-0.35;94.27;98285.10;1738500;81;21105;-75
2022/12/12 09:22:57;;;;;;;25.10;17.07;;;;;;;-0.25;93.89;98296.86;1731429;82;21073;-73
2022/12/12 09:25:23;;;;;;;25.52;17.70;;;;;;;-0.25;93.99;98300.32;1739517;81;21002;-73
2022/12/12 09:27:50;;;;;;;25.37;16.23;;;;;;;-0.32;94.50;98300.50;1719691;81;21941;-73
2022/12/12 09:30:17;;;;;;;22.62;16.23;;;;;;;-0.26;94.59;98305.67;1717663;82;21032;-74
2022/12/12 09:32:44;;;;;;;29.18;18.60;;;;;;;-0.24;94.58;98312.88;1732538;81;20995;-74
2022/12/12 09:35:10;;;;;;;25.75;17.67;;;;;;;-0.31;94.59;98311.76;1715798;83;21020;-76
2022/12/12 09:37:37;;;;;;;30.12;19.15;;;;;;;-0.31;94.51;98319.59;1712103;83;21514;-76
2022/12/12 09:40:05;;;;;;;29.50;20.00;;;;;;;-0.31;94.08;98334.80;1726298;82;21015;-75
2022/12/12 09:42:32;;;;;;;26.57;18.12;;;;;;;-0.41;94.17;98332.16;1738628;82;21027;-75
2022/12/12 09:45:02;;;;;;;27.93;18.57;;;;;;;-0.52;93.61;98334.02;1762463;80;21526;-75
2022/12/12 09:47:42;;;;;;;29.67;18.23;;;;;;;-0.45;94.06;98336.45;1712054;82;21536;-72
2022/12/12 09:50:26;;;;;;;30.82;20.62;;;;;;;-0.42;93.12;98342.72;1747514;80;21006;-71
2022/12/12 09:52:55;;;;;;;27.58;19.30;;;;;;;-0.57;92.85;98342.73;1745456;80;21117;-74
2022/12/12 09:55:34;;;;;;;27.80;19.52;;;;;;;-0.62;94.05;98352.23;1746941;80;21140;-77
2022/12/12 09:58:08;;;;;;;30.88;19.17;;;;;;;-0.54;93.81;98352.89;1744359;80;21104;-77
2022/12/12 10:00:37;;;;;;;25.70;18.60;;;;;;;-0.57;93.41;98355.78;1742554;82;21062;-76
2022/12/12 10:03:22;;;;;;;27.73;17.77;;;;;;;-0.71;93.08;98359.08;1754374;80;21030;-77
2022/12/12 10:06:06;;;;;;;32.13;19.60;;;;;;;-0.69;92.18;98362.87;1735045;81;21424;-73
2022/12/12 10:09:05;;;;;;;30.08;18.45;;;;;;;-0.70;92.05;98368.54;1740265;81;21081;-73
2022/12/12 10:11:49;;;;;;;25.75;16.10;;;;;;;-0.80;92.26;98365.07;1720519;82;21093;-73
2022/12/12 10:14:38;;;;;;;24.35;17.52;;;;;;;-0.87;90.44;98377.81;1738853;81;21086;-76
2022/12/12 10:17:09;;;;;;;30.17;18.92;;;;;;;-0.87;90.97;98379.12;1744089;82;21081;-73
2022/12/12 10:19:47;;;;;;;24.82;17.25;;;;;;;-0.94;91.88;98383.67;1728756;82;22111;-73
2022/12/12 10:22:49;;;;;;;21.75;16.40;;;;;;;-0.87;91.78;98401.28;1721066;82;21062;-73
2022/12/12 10:25:46;;;;;;;24.30;16.48;;;;;;;-0.88;91.75;98406.13;1760506;81;21031;-74
2022/12/12 10:28:15;;;;;;;26.35;17.05;;;;;;;-1.02;90.95;98396.04;1760744;81;21074;-75
2022/12/12 10:31:21;;;;;;;27.62;19.27;;;;;;;-1.00;91.38;98392.83;1730755;81;21018;-74
2022/12/12 10:34:17;;;;;;;36.25;22.00;;;;;;;-1.01;91.65;98391.98;1719155;83;21143;-75
2022/12/12 10:37:25;;;;;;;39.25;22.95;;;;;;;-1.03;92.35;98392.59;1743668;82;21014;-75
2022/12/12 10:40:12;;;;;;;41.83;21.07;;;;;;;-0.98;92.55;98381.80;1739590;81;21081;-75
2022/12/12 10:43:14;;;;;;;29.63;17.62;;;;;;;-0.97;93.81;98384.73;1743281;80;21063;-75
2022/12/12 10:46:17;;;;;;;30.08;19.70;;;;;;;-0.83;92.73;98396.61;1800044;78;21056;-73
2022/12/12 10:48:44;;;;;;;29.37;18.92;;;;;;;-0.93;93.00;98399.64;1750628;78;21525;-73
2022/12/12 10:51:13;;;;;;;26.02;17.82;;;;;;;-0.90;93.57;98409.83;1804710;78;21077;-77
2022/12/12 10:53:40;;;;;;;26.20;17.45;;;;;;;-0.82;93.12;98411.31;1804496;78;20986;-80
2022/12/12 10:56:21;;;;;;;28.15;18.80;;;;;;;-0.88;93.18;98419.66;1781945;79;21100;-79
2022/12/12 10:58:56;;;;;;;27.13;18.92;;;;;;;-0.82;92.94;98426.47;1803419;79;20994;-77
2022/12/12 11:01:31;;;;;;;29.48;19.32;;;;;;;-0.76;92.73;98429.53;1800299;78;21118;-78
2022/12/12 11:03:59;;;;;;;26.30;17.30;;;;;;;-0.79;93.20;98428.02;1764787;79;21047;-74
2022/12/12 11:06:32;;;;;;;26.75;17.80;;;;;;;-0.66;92.98;98439.53;1798176;79;21030;-73
2022/12/12 11:09:18;;;;;;;25.62;18.25;;;;;;;-0.67;92.53;98435.30;1801224;77;21474;-74
2022/12/12 11:11:59;;;;;;;23.27;15.65;;;;;;;-0.71;92.59;98433.41;1769544;78;21544;-79
2022/12/12 11:14:35;;;;;;;30.40;19.98;;;;;;;-0.79;92.33;98442.36;1771710;80;21650;-82
2022/12/12 11:17:26;;;;;;;30.02;20.80;;;;;;;-0.74;91.71;98449.30;1782112;80;21026;-82
2022/12/12 11:19:57;;;;;;;33.70;21.42;;;;;;;-0.76;91.25;98451.70;1784559;80;21211;-81
2022/12/12 11:22:26;;;;;;;33.98;22.82;;;;;;;-0.89;91.92;98444.91;1788160;79;20971;-82
2022/12/12 11:24:53;;;;;;;35.13;22.70;;;;;;;-0.80;92.16;98449.82;1791239;79;21015;-80
2022/12/12 11:27:39;;;;;;;26.35;18.77;;;;;;;-0.72;92.09;98447.88;1812976;79;21124;-80
2022/12/12 11:30:34;;;;;;;26.73;17.37;;;;;;;-0.77;92.11;98442.21;1807904;79;20953;-81
2022/12/12 11:33:01;;;;;;;24.10;16.32;;;;;;;;;;1797885;78;21001;-81
2022/12/12 11:35:37;;;;;;;23.27;17.27;;;;;;;-0.67;92.58;98440.02;1788453;79;21479;-80
2022/12/12 11:38:06;;;;;;;22.82;16.17;;;;;;;-0.64;92.52;98442.38;1799226;78;20995;-80
2022/12/12 11:40:35;;;;;;;26.42;15.75;;;;;;;-0.68;92.74;98444.88;1779839;79;21335;-80
2022/12/12 11:43:25;;;;;;;28.77;16.80;;;;;;;-0.61;92.61;98443.41;1783851;79;21004;-83
2022/12/12 11:46:06;;;;;;;27.07;16.20;;;;;;;-0.53;92.68;98444.55;1783050;79;20990;-82
2022/12/12 11:48:54;;;;;;;18.62;13.95;;;;;;;-0.63;92.46;98446.63;1796140;79;20959;-79
2022/12/12 11:51:39;;;;;;;20.52;13.45;;;;;;;-0.60;92.21;98447.69;1776699;79;21033;-82
2022/12/12 11:54:29;;;;;;;22.15;13.85;;;;;;;-0.62;91.01;98463.95;1789741;78;21131;-82
2022/12/12 11:57:13;;;;;;;23.15;14.47;;;;;;;-0.78;90.29;98457.04;1788991;79;20951;-82
2022/12/12 11:59:53;;;;;;;22.07;14.07;;;;;;;-0.77;90.87;98460.47;1791951;79;20951;-81
2022/12/12 12:03:07;;;;;;;21.57;15.43;;;;;;;-0.75;91.06;98462.47;1786520;79;21006;-81
2022/12/12 12:05:56;;;;;;;;;;;;;;;-0.84;91.67;98459.67;1653476;86;21524;-80
2022/12/12 12:08:49;;;;;;;24.02;16.27;;;;;;;-0.83;91.85;98460.04;1637484;85;21458;-78
2022/12/12 12:11:29;;;;;;;20.35;14.28;;;;;;;-0.74;91.50;98463.65;1634682;85;21085;-79
2022/12/12 12:14:43;;;;;;;21.25;15.08;;;;;;;-0.81;91.97;98456.83;1659285;85;21109;-79
2022/12/12 12:17:43;;;;;;;21.33;16.00;;;;;;;-0.82;92.69;98461.67;1663493;84;21590;-79
2022/12/12 12:20:24;;;;;;;20.57;15.18;;;;;;;-0.70;92.34;98469.44;1663955;85;21063;-78